sensor_id;sensor_type;location;lat;lon;timestamp;pressure;altitude;pressure_sealevel;temperature;humidity
74678;BME280;63207;56.328;43.994;2022-11-21T00:00:38;101362.78;;;18.38;40.55
74678;BME280;63207;56.328;43.994;2022-11-21T00:03:03;101357.53;;;18.38;40.60
74678;BME280;63207;56.328;43.994;2022-11-21T00:05:31;101360.06;;;18.40;40.44
74678;BME280;63207;56.328;43.994;2022-11-21T00:07:57;101350.53;;;18.39;40.38
74678;BME280;63207;56.328;43.994;2022-11-21T00:10:25;101348.03;;;18.37;40.50
74678;BME280;63207;56.328;43.994;2022-11-21T00:12:54;101349.69;;;18.38;40.43
74678;BME280;63207;56.328;43.994;2022-11-21T00:15:21;101356.69;;;18.38;40.52
74678;BME280;63207;56.328;43.994;2022-11-21T00:17:48;101357.53;;;18.38;40.53
74678;BME280;63207;56.328;43.994;2022-11-21T00:20:14;101360.16;;;18.38;40.57
74678;BME280;63207;56.328;43.994;2022-11-21T00:22:40;101365.38;;;18.38;40.59
74678;BME280;63207;56.328;43.994;2022-11-21T00:25:06;101357.53;;;18.38;40.72
74678;BME280;63207;56.328;43.994;2022-11-21T00:27:32;101355.03;;;18.37;40.59
74678;BME280;63207;56.328;43.994;2022-11-21T00:29:57;101361.00;;;18.39;40.66
74678;BME280;63207;56.328;43.994;2022-11-21T00:32:23;101367.91;;;18.40;40.79
74678;BME280;63207;56.328;43.994;2022-11-21T00:34:49;101350.63;;;18.37;40.54
74678;BME280;63207;56.328;43.994;2022-11-21T00:37:15;101352.28;;;18.38;40.64
74678;BME280;63207;56.328;43.994;2022-11-21T00:39:41;101358.38;;;18.39;40.58
74678;BME280;63207;56.328;43.994;2022-11-21T00:42:07;101349.69;;;18.38;40.45
74678;BME280;63207;56.328;43.994;2022-11-21T00:44:32;101339.19;;;18.38;40.59
74678;BME280;63207;56.328;43.994;2022-11-21T00:46:58;101355.78;;;18.39;40.61
74678;BME280;63207;56.328;43.994;2022-11-21T00:49:24;101355.78;;;18.39;40.62
74678;BME280;63207;56.328;43.994;2022-11-21T00:51:50;101355.78;;;18.39;40.65
74678;BME280;63207;56.328;43.994;2022-11-21T00:54:16;101359.31;;;18.38;40.52
74678;BME280;63207;56.328;43.994;2022-11-21T00:56:41;101357.53;;;18.38;40.52
74678;BME280;63207;56.328;43.994;2022-11-21T00:59:07;101357.53;;;18.38;40.55
74678;BME280;63207;56.328;43.994;2022-11-21T01:01:33;101361.94;;;18.38;40.49
74678;BME280;63207;56.328;43.994;2022-11-21T01:03:59;101360.06;;;18.40;40.54
74678;BME280;63207;56.328;43.994;2022-11-21T01:06:25;101362.66;;;18.40;40.54
74678;BME280;63207;56.328;43.994;2022-11-21T01:08:50;101361.94;;;18.38;40.52
74678;BME280;63207;56.328;43.994;2022-11-21T01:11:35;101363.63;;;18.39;40.58
74678;BME280;63207;56.328;43.994;2022-11-21T01:14:04;101359.31;;;18.38;40.45
74678;BME280;63207;56.328;43.994;2022-11-21T01:16:32;101361.13;;;18.37;40.65
74678;BME280;63207;56.328;43.994;2022-11-21T01:18:58;101369.69;;;18.39;40.59
74678;BME280;63207;56.328;43.994;2022-11-21T01:21:27;101361.84;;;18.39;40.54
74678;BME280;63207;56.328;43.994;2022-11-21T01:23:54;101353.16;;;18.39;40.54
74678;BME280;63207;56.328;43.994;2022-11-21T01:26:23;101353.97;;;18.39;40.50
74678;BME280;63207;56.328;43.994;2022-11-21T01:29:07;101348.84;;;18.38;40.54
74678;BME280;63207;56.328;43.994;2022-11-21T01:31:34;101353.97;;;18.39;40.74
74678;BME280;63207;56.328;43.994;2022-11-21T01:34:00;101349.56;;;18.40;40.65
74678;BME280;63207;56.328;43.994;2022-11-21T01:36:28;101340.88;;;18.39;40.56
74678;BME280;63207;56.328;43.994;2022-11-21T01:38:58;101332.19;;;18.39;40.79
74678;BME280;63207;56.328;43.994;2022-11-21T01:41:32;101329.56;;;18.39;40.56
74678;BME280;63207;56.328;43.994;2022-11-21T01:44:24;101331.34;;;18.38;40.47
74678;BME280;63207;56.328;43.994;2022-11-21T01:46:50;101319.22;;;18.37;40.45
74678;BME280;63207;56.328;43.994;2022-11-21T01:49:31;101340.88;;;18.39;40.47
74678;BME280;63207;56.328;43.994;2022-11-21T01:55:04;101339.19;;;18.38;40.50
74678;BME280;63207;56.328;43.994;2022-11-21T02:00:07;101350.53;;;18.39;40.65
74678;BME280;63207;56.328;43.994;2022-11-21T02:02:36;101349.81;;;18.37;40.67
74678;BME280;63207;56.328;43.994;2022-11-21T02:05:05;101343.59;;;18.38;40.66
74678;BME280;63207;56.328;43.994;2022-11-21T02:07:35;101339.19;;;18.38;40.55
74678;BME280;63207;56.328;43.994;2022-11-21T02:10:05;101334.91;;;18.37;40.57
74678;BME280;63207;56.328;43.994;2022-11-21T02:12:37;101348.75;;;18.39;40.54
74678;BME280;63207;56.328;43.994;2022-11-21T02:15:04;101342.78;;;18.37;40.65
74678;BME280;63207;56.328;43.994;2022-11-21T02:17:31;101343.50;;;18.39;40.64
74678;BME280;63207;56.328;43.994;2022-11-21T02:19:59;101346.94;;;18.40;40.46
74678;BME280;63207;56.328;43.994;2022-11-21T02:22:44;101347.91;;;18.39;40.67
74678;BME280;63207;56.328;43.994;2022-11-21T02:25:18;101336.56;;;18.38;40.60
74678;BME280;63207;56.328;43.994;2022-11-21T02:28:12;101339.19;;;18.38;40.62
74678;BME280;63207;56.328;43.994;2022-11-21T02:30:40;101333.97;;;18.38;40.67
74678;BME280;63207;56.328;43.994;2022-11-21T02:33:08;101327.88;;;18.38;40.65
74678;BME280;63207;56.328;43.994;2022-11-21T02:35:34;101330.41;;;18.39;40.72
74678;BME280;63207;56.328;43.994;2022-11-21T02:38:43;101329.56;;;18.39;40.61
74678;BME280;63207;56.328;43.994;2022-11-21T02:41:06;101333.03;;;18.39;40.61
74678;BME280;63207;56.328;43.994;2022-11-21T02:46:09;101330.41;;;18.39;40.50
74678;BME280;63207;56.328;43.994;2022-11-21T02:48:36;101320.75;;;18.40;40.45
74678;BME280;63207;56.328;43.994;2022-11-21T02:51:03;101316.47;;;18.39;40.43
74678;BME280;63207;56.328;43.994;2022-11-21T02:53:29;101322.56;;;18.39;40.56
74678;BME280;63207;56.328;43.994;2022-11-21T02:55:55;101310.38;;;18.38;40.56
74678;BME280;63207;56.328;43.994;2022-11-21T02:58:21;101300.75;;;18.39;40.66
74678;BME280;63207;56.328;43.994;2022-11-21T03:00:46;101297.28;;;18.38;40.46
74678;BME280;63207;56.328;43.994;2022-11-21T03:03:12;101291.13;;;18.39;40.63
74678;BME280;63207;56.328;43.994;2022-11-21T03:05:39;101291.94;;;18.40;40.61
74678;BME280;63207;56.328;43.994;2022-11-21T03:08:05;101286.81;;;18.38;40.65
74678;BME280;63207;56.328;43.994;2022-11-21T03:10:50;101291.94;;;18.40;40.51
74678;BME280;63207;56.328;43.994;2022-11-21T03:13:16;101278.03;;;18.39;40.48
74678;BME280;63207;56.328;43.994;2022-11-21T03:15:42;101277.06;;;18.40;40.56
74678;BME280;63207;56.328;43.994;2022-11-21T03:18:07;101277.06;;;18.40;40.57
74678;BME280;63207;56.328;43.994;2022-11-21T03:20:33;101271.00;;;18.40;40.60
74678;BME280;63207;56.328;43.994;2022-11-21T03:23:00;101280.63;;;18.39;40.57
74678;BME280;63207;56.328;43.994;2022-11-21T03:25:26;101282.28;;;18.40;40.58
74678;BME280;63207;56.328;43.994;2022-11-21T03:27:53;101274.44;;;18.40;40.56
74678;BME280;63207;56.328;43.994;2022-11-21T03:30:20;101268.38;;;18.40;40.56
74678;BME280;63207;56.328;43.994;2022-11-21T03:32:46;101275.41;;;18.39;40.52
74678;BME280;63207;56.328;43.994;2022-11-21T03:35:12;101267.41;;;18.41;40.56
74678;BME280;63207;56.328;43.994;2022-11-21T03:37:38;101283.25;;;18.39;40.56
74678;BME280;63207;56.328;43.994;2022-11-21T03:40:04;101287.53;;;18.40;40.57
74678;BME280;63207;56.328;43.994;2022-11-21T03:42:30;101283.25;;;18.39;40.45
74678;BME280;63207;56.328;43.994;2022-11-21T03:44:56;101265.84;;;18.38;40.63
74678;BME280;63207;56.328;43.994;2022-11-21T03:47:22;101271.81;;;18.40;40.46
74678;BME280;63207;56.328;43.994;2022-11-21T03:49:50;101269.19;;;18.40;40.46
74678;BME280;63207;56.328;43.994;2022-11-21T03:52:15;101266.56;;;18.40;40.52
74678;BME280;63207;56.328;43.994;2022-11-21T03:54:41;101263.03;;;18.41;40.44
74678;BME280;63207;56.328;43.994;2022-11-21T03:57:10;101263.13;;;18.40;40.55
74678;BME280;63207;56.328;43.994;2022-11-21T03:59:36;101267.53;;;18.39;40.53
74678;BME280;63207;56.328;43.994;2022-11-21T04:02:02;101266.56;;;18.40;40.54
74678;BME280;63207;56.328;43.994;2022-11-21T04:04:27;101270.16;;;18.39;40.43
74678;BME280;63207;56.328;43.994;2022-11-21T04:06:53;101266.72;;;18.39;40.53
74678;BME280;63207;56.328;43.994;2022-11-21T04:09:22;101259.69;;;18.39;40.61
74678;BME280;63207;56.328;43.994;2022-11-21T04:11:48;101269.19;;;18.40;40.45
74678;BME280;63207;56.328;43.994;2022-11-21T04:14:14;101266.72;;;18.39;40.59
74678;BME280;63207;56.328;43.994;2022-11-21T04:16:39;101270.16;;;18.39;40.66
74678;BME280;63207;56.328;43.994;2022-11-21T04:19:05;101263.97;;;18.40;40.61
74678;BME280;63207;56.328;43.994;2022-11-21T04:21:31;101257.88;;;18.40;40.48
74678;BME280;63207;56.328;43.994;2022-11-21T04:23:57;101252.66;;;18.40;40.57
74678;BME280;63207;56.328;43.994;2022-11-21T04:26:23;101248.25;;;18.40;40.56
74678;BME280;63207;56.328;43.994;2022-11-21T04:28:48;101254.44;;;18.39;40.47
74678;BME280;63207;56.328;43.994;2022-11-21T04:31:14;101239.56;;;18.40;40.63
74678;BME280;63207;56.328;43.994;2022-11-21T04:33:59;101238.72;;;18.39;40.54
74678;BME280;63207;56.328;43.994;2022-11-21T04:36:24;101237.75;;;18.40;40.41
74678;BME280;63207;56.328;43.994;2022-11-21T04:38:50;101233.50;;;18.39;40.52
74678;BME280;63207;56.328;43.994;2022-11-21T04:41:16;101231.69;;;18.40;40.55
74678;BME280;63207;56.328;43.994;2022-11-21T04:43:42;101236.94;;;18.40;40.51
74678;BME280;63207;56.328;43.994;2022-11-21T04:46:08;101243.00;;;18.40;40.60
74678;BME280;63207;56.328;43.994;2022-11-21T04:48:34;101241.22;;;18.41;40.61
74678;BME280;63207;56.328;43.994;2022-11-21T04:50:59;101239.56;;;18.40;40.60
74678;BME280;63207;56.328;43.994;2022-11-21T04:53:25;101243.00;;;18.40;40.64
74678;BME280;63207;56.328;43.994;2022-11-21T04:55:51;101235.97;;;18.41;40.52
74678;BME280;63207;56.328;43.994;2022-11-21T04:58:18;101249.06;;;18.41;40.63
74678;BME280;63207;56.328;43.994;2022-11-21T05:00:43;101251.69;;;18.41;40.65
74678;BME280;63207;56.328;43.994;2022-11-21T05:03:09;101247.31;;;18.41;40.53
74678;BME280;63207;56.328;43.994;2022-11-21T05:05:35;101242.06;;;18.41;40.62
74678;BME280;63207;56.328;43.994;2022-11-21T05:08:01;101247.31;;;18.41;40.54
74678;BME280;63207;56.328;43.994;2022-11-21T05:10:27;101255.16;;;18.41;40.57
74678;BME280;63207;56.328;43.994;2022-11-21T05:12:59;101243.00;;;18.40;40.61
74678;BME280;63207;56.328;43.994;2022-11-21T05:15:44;101250.03;;;18.40;40.37
74678;BME280;63207;56.328;43.994;2022-11-21T05:18:09;101254.31;;;18.41;40.51
74678;BME280;63207;56.328;43.994;2022-11-21T05:20:35;101257.78;;;18.41;40.62
74678;BME280;63207;56.328;43.994;2022-11-21T05:23:01;101262.06;;;18.42;40.54
74678;BME280;63207;56.328;43.994;2022-11-21T05:25:27;101256.09;;;18.40;40.61
74678;BME280;63207;56.328;43.994;2022-11-21T05:27:56;101251.59;;;18.42;40.61
74678;BME280;63207;56.328;43.994;2022-11-21T05:30:22;101245.50;;;18.42;40.44
74678;BME280;63207;56.328;43.994;2022-11-21T05:32:47;101233.34;;;18.41;40.54
74678;BME280;63207;56.328;43.994;2022-11-21T05:35:13;101237.66;;;18.42;40.49
74678;BME280;63207;56.328;43.994;2022-11-21T05:37:39;101234.22;;;18.41;40.57
74678;BME280;63207;56.328;43.994;2022-11-21T05:40:06;101238.25;;;18.45;40.43
74678;BME280;63207;56.328;43.994;2022-11-21T05:42:32;101245.75;;;18.50;40.85
74678;BME280;63207;56.328;43.994;2022-11-21T05:45:16;101247.91;;;18.56;40.64
74678;BME280;63207;56.328;43.994;2022-11-21T05:47:42;101246.00;;;18.58;41.34
74678;BME280;63207;56.328;43.994;2022-11-21T05:50:08;101242.34;;;18.61;42.17
74678;BME280;63207;56.328;43.994;2022-11-21T05:52:34;101239.00;;;18.59;43.98
74678;BME280;63207;56.328;43.994;2022-11-21T05:55:00;101243.38;;;18.58;44.21
74678;BME280;63207;56.328;43.994;2022-11-21T05:57:26;101234.69;;;18.58;44.27
74678;BME280;63207;56.328;43.994;2022-11-21T05:59:51;101227.78;;;18.57;44.64
74678;BME280;63207;56.328;43.994;2022-11-21T06:02:17;101221.81;;;18.55;45.01
74678;BME280;63207;56.328;43.994;2022-11-21T06:05:02;101227.06;;;18.55;45.44
74678;BME280;63207;56.328;43.994;2022-11-21T06:07:29;101226.25;;;18.54;45.72
74678;BME280;63207;56.328;43.994;2022-11-21T06:09:55;101214.94;;;18.54;45.83
74678;BME280;63207;56.328;43.994;2022-11-21T06:12:21;101215.16;;;18.50;46.26
74678;BME280;63207;56.328;43.994;2022-11-21T06:14:47;101213.50;;;18.49;46.51
74678;BME280;63207;56.328;43.994;2022-11-21T06:17:12;101209.91;;;18.50;46.51
74678;BME280;63207;56.328;43.994;2022-11-21T06:19:38;101213.38;;;18.51;46.62
74678;BME280;63207;56.328;43.994;2022-11-21T06:22:04;101216.94;;;18.50;46.70
74678;BME280;63207;56.328;43.994;2022-11-21T06:24:30;101223.00;;;18.50;46.66
74678;BME280;63207;56.328;43.994;2022-11-21T06:26:56;101221.34;;;18.49;46.73
74678;BME280;63207;56.328;43.994;2022-11-21T06:29:22;101225.63;;;18.50;46.64
74678;BME280;63207;56.328;43.994;2022-11-21T06:31:47;101216.94;;;18.50;46.76
74678;BME280;63207;56.328;43.994;2022-11-21T06:34:13;101226.47;;;18.51;46.74
74678;BME280;63207;56.328;43.994;2022-11-21T06:36:39;101231.72;;;18.51;46.75
74678;BME280;63207;56.328;43.994;2022-11-21T06:39:05;101229.09;;;18.51;46.94
74678;BME280;63207;56.328;43.994;2022-11-21T06:41:31;101228.13;;;18.52;46.71
74678;BME280;63207;56.328;43.994;2022-11-21T06:43:59;101228.25;;;18.50;46.95
74678;BME280;63207;56.328;43.994;2022-11-21T06:46:46;101231.72;;;18.51;46.84
74678;BME280;63207;56.328;43.994;2022-11-21T06:49:12;101230.88;;;18.50;46.64
74678;BME280;63207;56.328;43.994;2022-11-21T06:51:38;101241.34;;;18.50;46.61
74678;BME280;63207;56.328;43.994;2022-11-21T06:54:04;101248.28;;;18.51;46.68
74678;BME280;63207;56.328;43.994;2022-11-21T06:56:30;101254.22;;;18.54;46.51
74678;BME280;63207;56.328;43.994;2022-11-21T06:58:57;101263.75;;;18.55;46.67
74678;BME280;63207;56.328;43.994;2022-11-21T07:01:24;101255.88;;;18.55;46.58
74678;BME280;63207;56.328;43.994;2022-11-21T07:03:50;101264.72;;;18.54;46.35
74678;BME280;63207;56.328;43.994;2022-11-21T07:06:16;101267.34;;;18.54;46.17
74678;BME280;63207;56.328;43.994;2022-11-21T07:09:00;101268.16;;;18.54;46.33
74678;BME280;63207;56.328;43.994;2022-11-21T07:11:26;101268.16;;;18.54;46.24
74678;BME280;63207;56.328;43.994;2022-11-21T07:13:52;101270.78;;;18.54;46.11
74678;BME280;63207;56.328;43.994;2022-11-21T07:16:19;101262.91;;;18.54;45.93
74678;BME280;63207;56.328;43.994;2022-11-21T07:18:44;101275.88;;;18.56;45.90
74678;BME280;63207;56.328;43.994;2022-11-21T07:21:10;101275.06;;;18.55;45.93
74678;BME280;63207;56.328;43.994;2022-11-21T07:23:36;101277.69;;;18.55;45.69
74678;BME280;63207;56.328;43.994;2022-11-21T07:26:04;101281.97;;;18.56;45.70
74678;BME280;63207;56.328;43.994;2022-11-21T07:28:32;101291.59;;;18.56;45.70
74678;BME280;63207;56.328;43.994;2022-11-21T07:30:59;101294.13;;;18.57;45.73
74678;BME280;63207;56.328;43.994;2022-11-21T07:33:26;101293.28;;;18.57;45.58
74678;BME280;63207;56.328;43.994;2022-11-21T07:35:54;101289.72;;;18.58;45.50
74678;BME280;63207;56.328;43.994;2022-11-21T07:38:20;101287.09;;;18.58;45.57
74678;BME280;63207;56.328;43.994;2022-11-21T07:40:46;101283.63;;;18.57;45.62
74678;BME280;63207;56.328;43.994;2022-11-21T07:43:12;101281.84;;;18.58;45.34
74678;BME280;63207;56.328;43.994;2022-11-21T07:45:37;101274.81;;;18.58;45.29
74678;BME280;63207;56.328;43.994;2022-11-21T07:48:05;101276.59;;;18.58;45.27
74678;BME280;63207;56.328;43.994;2022-11-21T07:50:32;101275.66;;;18.59;45.28
74678;BME280;63207;56.328;43.994;2022-11-21T07:53:03;101273.88;;;18.59;45.04
74678;BME280;63207;56.328;43.994;2022-11-21T07:55:30;101275.53;;;18.60;45.14
74678;BME280;63207;56.328;43.994;2022-11-21T07:58:01;101266.84;;;18.60;45.02
74678;BME280;63207;56.328;43.994;2022-11-21T08:00:28;101265.06;;;18.60;45.11
74678;BME280;63207;56.328;43.994;2022-11-21T08:03:13;101260.69;;;18.61;44.97
74678;BME280;63207;56.328;43.994;2022-11-21T08:05:42;101258.06;;;18.61;44.94
74678;BME280;63207;56.328;43.994;2022-11-21T08:08:10;101272.91;;;18.60;44.93
74678;BME280;63207;56.328;43.994;2022-11-21T08:10:38;101265.19;;;18.59;44.77
74678;BME280;63207;56.328;43.994;2022-11-21T08:13:04;101268.53;;;18.61;44.82
74678;BME280;63207;56.328;43.994;2022-11-21T08:15:30;101269.38;;;18.61;44.74
74678;BME280;63207;56.328;43.994;2022-11-21T08:17:56;101266.59;;;18.63;44.72
74678;BME280;63207;56.328;43.994;2022-11-21T08:20:41;101263.28;;;18.61;44.58
74678;BME280;63207;56.328;43.994;2022-11-21T08:23:07;101261.38;;;18.63;44.59
74678;BME280;63207;56.328;43.994;2022-11-21T08:25:36;101261.38;;;18.63;44.61
74678;BME280;63207;56.328;43.994;2022-11-21T08:28:02;101268.41;;;18.62;44.55
74678;BME280;63207;56.328;43.994;2022-11-21T08:30:29;101267.47;;;18.63;44.43
74678;BME280;63207;56.328;43.994;2022-11-21T08:32:57;101263.88;;;18.64;44.39
74678;BME280;63207;56.328;43.994;2022-11-21T08:35:26;101251.84;;;18.62;44.43
74678;BME280;63207;56.328;43.994;2022-11-21T08:37:56;101256.97;;;18.63;44.43
74678;BME280;63207;56.328;43.994;2022-11-21T08:40:26;101250.88;;;18.63;44.32
74678;BME280;63207;56.328;43.994;2022-11-21T08:42:59;101248.97;;;18.65;44.25
74678;BME280;63207;56.328;43.994;2022-11-21T08:45:25;101245.53;;;18.64;44.23
74678;BME280;63207;56.328;43.994;2022-11-21T08:47:52;101237.69;;;18.64;44.16
74678;BME280;63207;56.328;43.994;2022-11-21T08:50:18;101235.88;;;18.65;43.97
74678;BME280;63207;56.328;43.994;2022-11-21T08:52:44;101229.72;;;18.66;44.12
74678;BME280;63207;56.328;43.994;2022-11-21T08:55:10;101235.06;;;18.64;44.11
74678;BME280;63207;56.328;43.994;2022-11-21T08:57:40;101241.00;;;18.66;44.07
74678;BME280;63207;56.328;43.994;2022-11-21T09:00:10;101241.00;;;18.66;44.07
74678;BME280;63207;56.328;43.994;2022-11-21T09:02:57;101240.28;;;18.64;44.02
74678;BME280;63207;56.328;43.994;2022-11-21T09:05:23;101234.94;;;18.66;43.98
74678;BME280;63207;56.328;43.994;2022-11-21T09:07:55;101245.44;;;18.66;44.09
74678;BME280;63207;56.328;43.994;2022-11-21T09:10:22;101243.75;;;18.65;43.88
74678;BME280;63207;56.328;43.994;2022-11-21T09:12:48;101248.06;;;18.66;43.84
74678;BME280;63207;56.328;43.994;2022-11-21T09:15:14;101251.50;;;18.66;43.86
74678;BME280;63207;56.328;43.994;2022-11-21T09:18:01;101247.44;;;18.62;43.89
74678;BME280;63207;56.328;43.994;2022-11-21T09:20:37;101246.50;;;18.63;43.88
74678;BME280;63207;56.328;43.994;2022-11-21T09:23:05;101245.63;;;18.63;43.73
74678;BME280;63207;56.328;43.994;2022-11-21T09:25:31;101247.31;;;18.64;43.78
74678;BME280;63207;56.328;43.994;2022-11-21T09:27:59;101245.63;;;18.63;43.84
74678;BME280;63207;56.328;43.994;2022-11-21T09:30:25;101247.44;;;18.62;43.74
74678;BME280;63207;56.328;43.994;2022-11-21T09:32:51;101241.25;;;18.63;43.65
74678;BME280;63207;56.328;43.994;2022-11-21T09:35:17;101245.53;;;18.64;43.66
74678;BME280;63207;56.328;43.994;2022-11-21T09:37:44;101247.31;;;18.64;43.71
74678;BME280;63207;56.328;43.994;2022-11-21T09:40:30;101249.94;;;18.64;43.57
74678;BME280;63207;56.328;43.994;2022-11-21T09:48:12;101244.81;;;18.62;43.48
74678;BME280;63207;56.328;43.994;2022-11-21T09:50:42;101249.13;;;18.63;43.49
74678;BME280;63207;56.328;43.994;2022-11-21T09:53:23;101250.78;;;18.64;43.45
74678;BME280;63207;56.328;43.994;2022-11-21T09:55:57;101250.88;;;18.63;43.53
74678;BME280;63207;56.328;43.994;2022-11-21T09:58:31;101243.88;;;18.63;43.41
74678;BME280;63207;56.328;43.994;2022-11-21T10:00:58;101242.09;;;18.64;43.41
74678;BME280;63207;56.328;43.994;2022-11-21T10:03:28;101242.09;;;18.64;43.45
74678;BME280;63207;56.328;43.994;2022-11-21T10:11:49;101236.03;;;18.63;43.44
74678;BME280;63207;56.328;43.994;2022-11-21T10:25:19;101230.88;;;18.62;43.26
74678;BME280;63207;56.328;43.994;2022-11-21T10:30:43;101235.16;;;18.63;43.20
74678;BME280;63207;56.328;43.994;2022-11-21T10:33:19;101239.47;;;18.64;43.16
74678;BME280;63207;56.328;43.994;2022-11-21T10:35:51;101234.22;;;18.64;43.04
74678;BME280;63207;56.328;43.994;2022-11-21T10:38:22;101236.03;;;18.63;43.10
74678;BME280;63207;56.328;43.994;2022-11-21T10:41:05;101234.22;;;18.64;43.15
74678;BME280;63207;56.328;43.994;2022-11-21T10:46:19;101234.22;;;18.64;43.18
74678;BME280;63207;56.328;43.994;2022-11-21T10:49:00;101229.09;;;18.62;43.11
74678;BME280;63207;56.328;43.994;2022-11-21T10:51:49;101232.53;;;18.63;43.03
74678;BME280;63207;56.328;43.994;2022-11-21T10:54:16;101223.84;;;18.62;43.10
74678;BME280;63207;56.328;43.994;2022-11-21T10:57:15;101231.59;;;18.64;42.96
74678;BME280;63207;56.328;43.994;2022-11-21T10:59:59;101222.06;;;18.63;43.08
74678;BME280;63207;56.328;43.994;2022-11-21T11:02:26;101219.44;;;18.63;42.92
74678;BME280;63207;56.328;43.994;2022-11-21T11:07:41;101215.06;;;18.63;42.85
74678;BME280;63207;56.328;43.994;2022-11-21T11:10:21;101208.03;;;18.64;42.96
74678;BME280;63207;56.328;43.994;2022-11-21T11:13:19;101202.88;;;18.62;42.94
74678;BME280;63207;56.328;43.994;2022-11-21T11:16:22;101203.72;;;18.63;42.85
74678;BME280;63207;56.328;43.994;2022-11-21T11:29:30;101200.16;;;18.64;42.86
74678;BME280;63207;56.328;43.994;2022-11-21T11:32:13;101195.84;;;18.63;42.85
74678;BME280;63207;56.328;43.994;2022-11-21T11:37:41;101202.78;;;18.64;42.87
74678;BME280;63207;56.328;43.994;2022-11-21T11:40:34;101205.41;;;18.64;42.75
74678;BME280;63207;56.328;43.994;2022-11-21T11:46:36;101203.72;;;18.63;42.76
74678;BME280;63207;56.328;43.994;2022-11-21T11:49:43;101195.84;;;18.63;42.72
74678;BME280;63207;56.328;43.994;2022-11-21T11:52:59;101194.09;;;18.63;42.78
74678;BME280;63207;56.328;43.994;2022-11-21T11:55:34;101196.72;;;18.63;42.71
74678;BME280;63207;56.328;43.994;2022-11-21T11:58:06;101199.34;;;18.63;42.84
74678;BME280;63207;56.328;43.994;2022-11-21T12:00:41;101192.31;;;18.64;42.67
74678;BME280;63207;56.328;43.994;2022-11-21T12:03:20;101193.13;;;18.64;42.84
74678;BME280;63207;56.328;43.994;2022-11-21T12:08:32;101193.94;;;18.65;42.60
74678;BME280;63207;56.328;43.994;2022-11-21T12:11:24;101198.38;;;18.64;42.67
74678;BME280;63207;56.328;43.994;2022-11-21T12:14:27;101193.13;;;18.64;42.77
74678;BME280;63207;56.328;43.994;2022-11-21T12:17:15;101187.88;;;18.64;42.71
74678;BME280;63207;56.328;43.994;2022-11-21T12:19:46;101189.53;;;18.65;42.78
74678;BME280;63207;56.328;43.994;2022-11-21T12:22:32;101188.84;;;18.63;42.54
74678;BME280;63207;56.328;43.994;2022-11-21T12:24:58;101185.25;;;18.64;42.70
74678;BME280;63207;56.328;43.994;2022-11-21T12:27:30;101191.34;;;18.65;42.79
74678;BME280;63207;56.328;43.994;2022-11-21T12:30:06;101190.41;;;18.66;42.72
74678;BME280;63207;56.328;43.994;2022-11-21T12:32:55;101190.41;;;18.66;42.63
74678;BME280;63207;56.328;43.994;2022-11-21T12:35:54;101189.53;;;18.65;42.64
74678;BME280;63207;56.328;43.994;2022-11-21T12:44:12;101186.91;;;18.65;42.71
74678;BME280;63207;56.328;43.994;2022-11-21T12:50:27;101180.84;;;18.65;42.65
74678;BME280;63207;56.328;43.994;2022-11-21T12:53:29;101179.91;;;18.66;42.76
74678;BME280;63207;56.328;43.994;2022-11-21T12:56:40;101180.75;;;18.66;42.65
74678;BME280;63207;56.328;43.994;2022-11-21T12:59:11;101179.91;;;18.66;42.52
74678;BME280;63207;56.328;43.994;2022-11-21T13:02:06;101185.97;;;18.66;42.65
74678;BME280;63207;56.328;43.994;2022-11-21T13:04:39;101178.94;;;18.67;42.69
74678;BME280;63207;56.328;43.994;2022-11-21T13:07:06;101178.94;;;18.67;42.63
74678;BME280;63207;56.328;43.994;2022-11-21T13:09:46;101181.47;;;18.68;42.58
74678;BME280;63207;56.328;43.994;2022-11-21T13:17:44;101179.66;;;18.69;42.56
74678;BME280;63207;56.328;43.994;2022-11-21T13:20:29;101182.28;;;18.69;42.59
74678;BME280;63207;56.328;43.994;2022-11-21T13:23:34;101176.22;;;18.68;42.80
74678;BME280;63207;56.328;43.994;2022-11-21T13:26:01;101179.66;;;18.69;42.57
74678;BME280;63207;56.328;43.994;2022-11-21T13:28:31;101183.13;;;18.69;42.59
74678;BME280;63207;56.328;43.994;2022-11-21T13:31:04;101185.75;;;18.69;42.53
74678;BME280;63207;56.328;43.994;2022-11-21T13:36:33;101182.16;;;18.70;42.57
74678;BME280;63207;56.328;43.994;2022-11-21T13:52:43;101176.94;;;18.82;42.40
74678;BME280;63207;56.328;43.994;2022-11-21T13:55:24;101183.00;;;18.82;42.58
74678;BME280;63207;56.328;43.994;2022-11-21T13:57:57;101178.47;;;18.84;42.61
74678;BME280;63207;56.328;43.994;2022-11-21T14:00:31;101164.31;;;18.87;42.42
74678;BME280;63207;56.328;43.994;2022-11-21T14:06:13;101171.34;;;18.86;42.61
74678;BME280;63207;56.328;43.994;2022-11-21T14:08:42;101173.13;;;18.86;42.42
74678;BME280;63207;56.328;43.994;2022-11-21T14:11:25;101173.13;;;18.86;42.44
74678;BME280;63207;56.328;43.994;2022-11-21T14:13:54;101176.84;;;18.83;42.45
74678;BME280;63207;56.328;43.994;2022-11-21T14:16:38;101172.28;;;18.85;42.44
74678;BME280;63207;56.328;43.994;2022-11-21T14:19:17;101166.34;;;18.83;42.37
74678;BME280;63207;56.328;43.994;2022-11-21T14:21:45;101168.81;;;18.85;42.60
74678;BME280;63207;56.328;43.994;2022-11-21T14:24:17;101160.25;;;18.83;42.48
74678;BME280;63207;56.328;43.994;2022-11-21T14:26:49;101164.66;;;18.82;42.41
74678;BME280;63207;56.328;43.994;2022-11-21T14:29:25;101164.56;;;18.84;42.53
74678;BME280;63207;56.328;43.994;2022-11-21T14:32:13;101164.66;;;18.82;42.56